Time;durP1;ratioP1;P1;durP2;ratioP2;P2;SDS_P1;SDS_P2;PMS_P1;PMS_P2;Temp;Humidity;BMP_temperature;BMP_pressure;BME280_temperature;BME280_humidity;BME280_pressure;Samples;Min_cycle;Max_cycle;Signal;HPM_P1;HPM_P2
2021/05/05 00:01:51;;;;;;;5.55;2.88;;;;;;;12.73;41.41;97481.28;127678;1104;115337;-78
2021/05/05 00:04:17;;;;;;;3.90;2.55;;;;;;;12.69;41.69;97470.41;127654;1104;116009;-78
2021/05/05 00:06:43;;;;;;;4.08;2.65;;;;;;;12.66;41.70;97473.80;127660;1104;115573;-79
2021/05/05 00:09:09;;;;;;;5.50;2.80;;;;;;;12.62;42.26;97481.02;127643;1104;115158;-79
2021/05/05 00:11:36;;;;;;;6.98;2.93;;;;;;;12.58;43.50;97479.35;127646;1104;115753;-78
2021/05/05 00:14:03;;;;;;;5.93;2.48;;;;;;;12.53;42.27;97466.86;128397;1104;22759;-79
2021/05/05 00:16:29;;;;;;;5.05;2.80;;;;;;;12.49;42.34;97461.35;127517;1104;115456;-79
2021/05/05 00:18:55;;;;;;;6.45;2.75;;;;;;;12.44;43.21;97456.20;127629;1104;115481;-79
2021/05/05 00:21:21;;;;;;;4.85;2.70;;;;;;;12.39;42.97;97455.68;127596;1099;115124;-79
2021/05/05 00:23:47;;;;;;;3.90;2.40;;;;;;;12.35;43.01;97450.18;127610;1099;115734;-79
2021/05/05 00:26:13;;;;;;;5.40;2.90;;;;;;;12.32;42.74;97460.88;128383;1104;22756;-79
2021/05/05 00:28:39;;;;;;;3.50;2.40;;;;;;;12.26;42.82;97444.93;127675;1104;115812;-79
2021/05/05 00:31:05;;;;;;;5.28;2.60;;;;;;;12.21;44.49;97444.37;127509;1104;115743;-79
2021/05/05 00:33:31;;;;;;;4.35;2.45;;;;;;;12.17;44.51;97446.19;127492;1104;116076;-79
2021/05/05 00:35:57;;;;;;;5.20;2.40;;;;;;;12.11;43.34;97429.45;127602;1100;115786;-78
2021/05/05 00:38:23;;;;;;;6.08;2.93;;;;;;;12.08;44.14;97424.73;127546;1100;115817;-78
2021/05/05 00:40:49;;;;;;;4.75;2.18;;;;;;;12.06;44.74;97424.28;128274;1104;22745;-80
2021/05/05 00:43:15;;;;;;;4.65;2.33;;;;;;;12.02;44.90;97429.60;127579;1104;115792;-80
2021/05/05 00:45:41;;;;;;;7.40;2.45;;;;;;;11.97;46.19;97429.81;127481;1107;115456;-80
2021/05/05 00:48:07;;;;;;;5.98;2.60;;;;;;;11.95;45.44;97434.00;127478;1107;115104;-80
2021/05/05 00:50:33;;;;;;;4.25;2.53;;;;;;;11.93;43.75;97428.93;127568;1104;115112;-80
2021/05/05 00:52:59;;;;;;;4.65;2.40;;;;;;;11.92;44.27;97418.49;128378;1100;22803;-80
2021/05/05 00:55:26;;;;;;;7.63;2.80;;;;;;;11.90;45.19;97418.03;127423;1104;115783;-80
2021/05/05 00:57:52;;;;;;;4.05;2.58;;;;;;;11.90;44.06;97423.42;127536;1100;115531;-80
2021/05/05 01:00:20;;;;;;;4.28;2.23;;;;;;;11.88;44.56;97418.38;127571;1104;115350;-80
2021/05/05 01:02:46;;;;;;;3.83;2.35;;;;;;;11.86;44.37;97414.45;127525;1104;116328;-80
2021/05/05 01:05:14;;;;;;;4.23;2.55;;;;;;;11.84;44.64;97417.50;128272;1105;23465;-80
2021/05/05 01:07:40;;;;;;;5.45;2.35;;;;;;;11.84;45.02;97422.89;127634;1104;115692;-78
2021/05/05 01:10:09;;;;;;;4.20;2.40;;;;;;;11.83;45.37;97409.70;127563;1099;115515;-78
2021/05/05 01:12:35;;;;;;;4.80;2.40;;;;;;;11.80;45.01;97409.27;127565;1104;115428;-79
2021/05/05 01:15:02;;;;;;;3.35;2.40;;;;;;;11.79;44.68;97409.62;127432;1107;115956;-79
2021/05/05 01:17:29;;;;;;;6.33;2.50;;;;;;;11.77;44.06;97404.55;127479;1100;115911;-79
2021/05/05 01:19:55;;;;;;;4.48;2.15;;;;;;;11.73;45.36;97400.96;128341;1105;22885;-79
2021/05/05 01:22:21;;;;;;;3.80;2.40;;;;;;;11.72;45.73;97412.09;127437;1106;115463;-79
2021/05/05 01:24:47;;;;;;;3.80;2.48;;;;;;;11.70;45.40;97412.42;127454;1105;115879;-79
2021/05/05 01:27:13;;;;;;;5.08;2.28;;;;;;;11.69;44.86;97410.08;127565;1104;116105;-79
2021/05/05 01:29:39;;;;;;;6.65;2.60;;;;;;;11.66;44.67;97403.44;127498;1105;115769;-79
2021/05/05 01:32:06;;;;;;;4.40;2.53;;;;;;;11.63;45.87;97414.93;128344;1099;26203;-79
2021/05/05 01:34:34;;;;;;;3.10;2.23;;;;;;;11.58;46.30;97401.66;127481;1104;116008;-79
2021/05/05 01:37:00;;;;;;;4.25;2.55;;;;;;;11.53;45.63;97410.77;127694;1104;117224;-79
2021/05/05 01:39:26;;;;;;;3.50;2.30;;;;;;;11.47;45.37;97393.23;127645;1104;116860;-79
2021/05/05 01:41:52;;;;;;;4.30;2.13;;;;;;;11.44;45.80;97399.33;127566;1104;115494;-79
2021/05/05 01:44:36;;;;;;;4.53;2.25;;;;;;;11.42;47.60;97390.78;128295;1099;22779;-79
2021/05/05 01:47:04;;;;;;;4.13;2.33;;;;;;;11.36;46.69;97389.45;128463;1104;22845;-79
2021/05/05 01:49:31;;;;;;;5.45;2.20;;;;;;;11.33;46.23;97379.34;127711;1104;116213;-79
2021/05/05 01:52:02;;;;;;;5.63;2.50;;;;;;;11.30;46.49;97388.88;127740;1099;115676;-79
2021/05/05 01:54:28;;;;;;;3.75;2.23;;;;;;;11.26;47.97;97387.20;127477;1104;116454;-79
2021/05/05 01:57:32;;;;;;;5.78;2.40;;;;;;;11.23;46.59;97390.56;127583;1098;115849;-78
2021/05/05 02:00:00;;;;;;;3.48;1.93;;;;;;;11.21;47.49;97387.44;127600;1104;116355;-78
2021/05/05 02:02:31;;;;;;;3.18;1.73;;;;;;;11.19;47.64;97392.36;127729;1104;117820;-78
2021/05/05 02:04:58;;;;;;;4.10;1.85;;;;;;;11.15;48.72;97396.85;128317;1098;25848;-79
2021/05/05 02:07:24;;;;;;;3.85;2.18;;;;;;;11.14;46.94;97384.52;127438;1105;115458;-79
2021/05/05 02:09:50;;;;;;;5.25;2.30;;;;;;;11.13;47.05;97393.72;127695;1105;115666;-78
2021/05/05 02:12:17;;;;;;;3.83;2.05;;;;;;;11.11;46.88;97380.57;127478;1104;116127;-78
2021/05/05 02:14:46;;;;;;;3.53;2.18;;;;;;;11.09;47.56;97379.36;127499;1100;115764;-78
2021/05/05 02:17:14;;;;;;;5.90;2.23;;;;;;;11.06;47.94;97378.89;128239;1107;22858;-78
2021/05/05 02:19:40;;;;;;;4.68;2.55;;;;;;;11.05;47.50;97374.64;127479;1104;115388;-78
2021/05/05 02:22:06;;;;;;;4.70;2.50;;;;;;;11.04;47.30;97364.98;127452;1107;115548;-78
2021/05/05 02:24:32;;;;;;;6.50;2.53;;;;;;;11.04;47.24;97364.18;127427;1105;116031;-79
2021/05/05 02:26:59;;;;;;;3.93;2.28;;;;;;;11.01;47.08;97365.66;127500;1105;116251;-79
2021/05/05 02:29:25;;;;;;;4.13;2.40;;;;;;;10.98;47.48;97363.63;127510;1099;115277;-79
2021/05/05 02:31:52;;;;;;;4.45;2.25;;;;;;;10.95;48.08;97371.59;128234;1105;22817;-79
2021/05/05 02:34:18;;;;;;;6.08;2.35;;;;;;;10.92;47.80;97359.57;127420;1105;115606;-78
2021/05/05 02:36:44;;;;;;;3.45;2.08;;;;;;;10.90;47.83;97369.13;127470;1099;115396;-79
2021/05/05 02:39:12;;;;;;;5.33;2.43;;;;;;;10.88;48.25;97353.28;127455;1104;116160;-79
2021/05/05 02:41:40;;;;;;;3.07;2.30;;;;;;;10.85;48.13;97351.29;127581;1104;115739;-79
2021/05/05 02:44:07;;;;;;;4.60;2.48;;;;;;;10.82;48.49;97360.03;128242;1105;22752;-79
2021/05/05 02:46:33;;;;;;;5.38;2.15;;;;;;;10.79;48.83;97361.48;127551;1104;115495;-79
2021/05/05 02:49:00;;;;;;;5.28;2.38;;;;;;;10.76;49.20;97356.75;127512;1104;116336;-79
2021/05/05 02:51:27;;;;;;;2.70;2.20;;;;;;;10.75;49.05;97359.80;127584;1105;115152;-79
2021/05/05 02:53:53;;;;;;;2.98;1.80;;;;;;;10.73;50.55;97341.30;127723;1098;115711;-79
2021/05/05 02:56:19;;;;;;;4.08;2.50;;;;;;;10.70;51.67;97338.48;128100;1104;115964;-80
2021/05/05 02:58:45;;;;;;;5.75;2.40;;;;;;;10.66;51.35;97341.05;128222;1104;120420;-80
2021/05/05 03:01:11;;;;;;;3.55;2.20;;;;;;;10.66;51.62;97351.04;127580;1104;115518;-80
2021/05/05 03:03:37;;;;;;;3.60;2.18;;;;;;;10.63;53.56;97344.41;127589;1104;115850;-80
2021/05/05 03:06:03;;;;;;;3.15;1.98;;;;;;;10.59;53.71;97346.20;127463;1104;115747;-80
2021/05/05 03:08:29;;;;;;;3.77;2.10;;;;;;;10.58;51.93;97344.63;127473;1104;115794;-80
2021/05/05 03:10:55;;;;;;;4.78;2.35;;;;;;;10.55;51.89;97348.77;128270;1104;22831;-80
2021/05/05 03:13:21;;;;;;;8.03;2.65;;;;;;;10.57;52.01;97359.19;127485;1099;115009;-80
2021/05/05 03:15:47;;;;;;;4.30;2.30;;;;;;;10.58;52.88;97355.41;127528;1104;115928;-78
2021/05/05 03:18:14;;;;;;;4.90;2.30;;;;;;;10.59;51.49;97356.19;127485;1105;115780;-78
2021/05/05 03:20:40;;;;;;;4.23;2.58;;;;;;;10.58;52.64;97350.02;127588;1100;115261;-78
2021/05/05 03:23:06;;;;;;;5.33;2.48;;;;;;;10.59;52.12;97346.20;128223;1107;22778;-79
2021/05/05 03:25:32;;;;;;;6.28;2.25;;;;;;;10.61;53.08;97356.63;127549;1104;115961;-79
2021/05/05 03:27:58;;;;;;;4.03;2.30;;;;;;;10.60;52.92;97344.29;127554;1104;116419;-79
2021/05/05 03:30:24;;;;;;;6.20;2.45;;;;;;;10.58;53.58;97351.92;127401;1104;115505;-79
2021/05/05 03:32:51;;;;;;;5.80;2.30;;;;;;;10.56;52.93;97344.95;127580;1104;116603;-79
2021/05/05 03:35:17;;;;;;;5.10;2.48;;;;;;;10.56;53.26;97353.02;128265;1105;22750;-79
2021/05/05 03:37:43;;;;;;;3.68;2.23;;;;;;;10.54;54.56;97343.73;127616;1099;115349;-79
2021/05/05 03:40:11;;;;;;;4.95;2.50;;;;;;;10.51;53.86;97337.09;127539;1106;115804;-79
2021/05/05 03:42:38;;;;;;;3.78;2.70;;;;;;;10.49;54.08;97333.16;127612;1099;115658;-79
2021/05/05 03:45:06;;;;;;;4.23;2.00;;;;;;;10.47;55.02;97333.50;127630;1104;116945;-79
2021/05/05 03:47:32;;;;;;;5.57;2.40;;;;;;;10.43;56.49;97327.22;127474;1106;115559;-79
2021/05/05 03:49:58;;;;;;;5.88;2.70;;;;;;;10.42;54.52;97328.34;128423;1104;22757;-79
2021/05/05 03:52:25;;;;;;;4.30;2.20;;;;;;;10.43;53.60;97329.13;127547;1105;115331;-79
2021/05/05 03:54:51;;;;;;;3.93;2.43;;;;;;;10.43;54.78;97327.22;127518;1105;115513;-78
2021/05/05 03:57:18;;;;;;;2.65;2.23;;;;;;;10.44;56.74;97334.16;127567;1104;116379;-79
2021/05/05 03:59:43;;;;;;;4.40;2.10;;;;;;;10.44;55.92;97319.92;127504;1105;116379;-79
2021/05/05 04:02:10;;;;;;;4.63;2.63;;;;;;;10.43;56.69;97321.05;128412;1104;22789;-79
2021/05/05 04:04:37;;;;;;;7.45;2.70;;;;;;;10.44;55.32;97319.92;127620;1099;115190;-79
2021/05/05 04:07:03;;;;;;;3.63;2.58;;;;;;;10.45;56.34;97318.80;127558;1104;115561;-79
2021/05/05 04:09:29;;;;;;;3.68;1.83;;;;;;;10.45;56.43;97298.08;127501;1104;115377;-78
2021/05/05 04:11:55;;;;;;;3.35;1.83;;;;;;;10.48;57.26;97299.30;127672;1104;116052;-79
2021/05/05 04:14:22;;;;;;;4.23;2.60;;;;;;;10.51;57.07;97306.71;127476;1104;116233;-79
2021/05/05 04:16:48;;;;;;;3.60;2.48;;;;;;;10.52;55.91;97300.20;128416;1104;22757;-79
2021/05/05 04:19:14;;;;;;;4.18;2.53;;;;;;;10.53;56.98;97307.15;127595;1104;115903;-79
2021/05/05 04:21:41;;;;;;;4.55;2.35;;;;;;;10.55;56.28;97307.61;127711;1100;115457;-79
2021/05/05 04:24:10;;;;;;;5.18;2.73;;;;;;;10.59;56.64;97305.05;127544;1104;116169;-79
2021/05/05 04:26:36;;;;;;;6.95;2.58;;;;;;;10.62;55.25;97299.78;127687;1104;115182;-79
2021/05/05 04:29:03;;;;;;;5.08;2.38;;;;;;;10.65;55.21;97304.50;128411;1104;22767;-79
2021/05/05 04:31:31;;;;;;;5.35;2.55;;;;;;;10.67;55.60;97307.63;127634;1104;115246;-79
2021/05/05 04:33:57;;;;;;;4.23;2.50;;;;;;;10.70;54.32;97296.19;127521;1104;115756;-79
2021/05/05 04:36:23;;;;;;;7.20;2.65;;;;;;;10.73;54.65;97297.44;127476;1105;115785;-78
2021/05/05 04:38:49;;;;;;;4.98;2.65;;;;;;;10.76;53.78;97304.81;127505;1104;116221;-79
2021/05/05 04:41:15;;;;;;;4.43;2.43;;;;;;;10.79;54.43;97302.24;128359;1104;22773;-79
2021/05/05 04:43:41;;;;;;;5.40;2.95;;;;;;;10.82;54.88;97314.25;127539;1104;115013;-79
2021/05/05 04:46:07;;;;;;;4.35;2.80;;;;;;;10.84;53.89;97312.00;127450;1100;116403;-79
2021/05/05 04:48:34;;;;;;;5.25;3.00;;;;;;;10.87;54.12;97316.72;127445;1107;115946;-79
2021/05/05 04:51:01;;;;;;;4.70;2.55;;;;;;;10.87;56.34;97308.63;127595;1104;116781;-79
2021/05/05 04:53:27;;;;;;;5.93;2.77;;;;;;;10.91;54.53;97324.91;127408;1104;115509;-79
2021/05/05 04:55:53;;;;;;;6.88;3.23;;;;;;;10.92;54.10;97319.17;128375;1099;26264;-78
2021/05/05 04:58:20;;;;;;;6.58;3.38;;;;;;;10.94;53.52;97318.86;127662;1104;115623;-78
2021/05/05 05:00:46;;;;;;;4.35;2.58;;;;;;;10.95;54.90;97326.59;127557;1104;116890;-78
2021/05/05 05:03:12;;;;;;;6.38;2.88;;;;;;;10.97;54.16;97331.66;127524;1105;115767;-78
2021/05/05 05:05:38;;;;;;;5.43;3.03;;;;;;;11.00;53.57;97326.38;127500;1105;115689;-78
2021/05/05 05:08:05;;;;;;;5.68;3.10;;;;;;;11.04;53.64;97323.77;128292;1100;22763;-78
2021/05/05 05:10:31;;;;;;;5.60;3.63;;;;;;;11.05;54.49;97328.84;127552;1104;116098;-78
2021/05/05 05:12:59;;;;;;;7.08;3.30;;;;;;;11.06;53.66;97327.71;127617;1104;115788;-78
2021/05/05 05:15:27;;;;;;;5.13;2.80;;;;;;;11.08;54.24;97321.97;127455;1104;115435;-78
2021/05/05 05:17:53;;;;;;;6.23;3.20;;;;;;;11.10;53.68;97325.13;127579;1104;115765;-79
2021/05/05 05:20:20;;;;;;;5.95;3.00;;;;;;;11.14;55.18;97315.25;127850;1104;115978;-79
2021/05/05 05:22:47;;;;;;;7.60;3.33;;;;;;;11.22;54.80;97321.64;128369;1104;22730;-79
2021/05/05 05:25:13;;;;;;;3.65;2.55;;;;;;;11.28;55.90;97325.69;127572;1104;115703;-79
2021/05/05 05:27:40;;;;;;;7.98;4.30;;;;;;;11.36;54.01;97321.27;127568;1104;115608;-79
2021/05/05 05:30:07;;;;;;;8.20;2.93;;;;;;;11.46;54.94;97324.28;127404;1104;115586;-80
2021/05/05 05:32:34;;;;;;;8.23;3.03;;;;;;;11.58;53.55;97320.78;127613;1104;115721;-79
2021/05/05 05:35:00;;;;;;;5.93;3.53;;;;;;;11.67;53.43;97332.23;128249;1105;22815;-79
2021/05/05 05:37:26;;;;;;;7.40;3.58;;;;;;;11.77;53.46;97329.03;127762;1104;115559;-78
2021/05/05 05:39:52;;;;;;;6.88;3.48;;;;;;;11.87;53.28;97321.61;127543;1099;114184;-79
2021/05/05 05:42:19;;;;;;;5.50;4.03;;;;;;;11.93;52.79;97328.34;127290;1105;115566;-79
2021/05/05 05:44:45;;;;;;;6.35;3.55;;;;;;;11.94;53.80;97322.59;127192;1105;116381;-79
2021/05/05 05:47:11;;;;;;;6.73;3.80;;;;;;;12.00;53.41;97321.23;128165;1104;22772;-79
2021/05/05 05:49:37;;;;;;;6.55;3.93;;;;;;;12.02;52.89;97321.69;127414;1104;114497;-78
2021/05/05 05:52:03;;;;;;;7.05;3.80;;;;;;;12.06;53.20;97315.58;127354;1104;116213;-79
2021/05/05 05:54:30;;;;;;;7.23;3.37;;;;;;;12.12;53.19;97323.09;127601;1100;115136;-78
2021/05/05 05:56:56;;;;;;;9.30;3.90;;;;;;;12.20;53.57;97329.45;127322;1104;116068;-79
2021/05/05 05:59:23;;;;;;;7.00;3.50;;;;;;;12.23;53.47;97334.17;127346;1104;116504;-77
2021/05/05 06:01:50;;;;;;;6.23;3.83;;;;;;;12.29;53.28;97346.27;128138;1105;22773;-79
2021/05/05 06:04:18;;;;;;;7.05;3.85;;;;;;;12.37;52.40;97342.63;127521;1104;115934;-80
2021/05/05 06:06:45;;;;;;;7.50;3.75;;;;;;;12.48;53.00;97337.52;127746;1104;115265;-79
2021/05/05 06:09:12;;;;;;;6.95;4.55;;;;;;;12.56;51.99;97328.46;127713;1099;116355;-79
2021/05/05 06:11:38;;;;;;;5.83;3.60;;;;;;;12.65;54.04;97323.66;127657;1104;116408;-78
2021/05/05 06:14:07;;;;;;;8.10;3.80;;;;;;;12.74;52.97;97320.81;128476;1105;22821;-78
2021/05/05 06:16:33;;;;;;;7.28;4.08;;;;;;;12.81;52.45;97322.88;127647;1104;115535;-79
2021/05/05 06:18:59;;;;;;;9.15;4.38;;;;;;;12.83;52.49;97326.03;127619;1104;115267;-79
2021/05/05 06:21:26;;;;;;;8.33;4.18;;;;;;;12.88;51.47;97321.14;127639;1099;116682;-79
2021/05/05 06:23:53;;;;;;;11.38;4.23;;;;;;;12.94;51.60;97317.05;127634;1105;115387;-78
2021/05/05 06:26:21;;;;;;;6.10;3.80;;;;;;;12.99;53.20;97299.78;128144;1105;117221;-79
2021/05/05 06:28:47;;;;;;;5.88;2.95;;;;;;;13.03;52.59;97293.32;128147;1104;119960;-79
2021/05/05 06:31:13;;;;;;;8.97;3.70;;;;;;;13.10;52.55;97294.63;127612;1099;115859;-79
2021/05/05 06:33:39;;;;;;;7.93;3.13;;;;;;;13.19;53.45;97301.39;127631;1104;115807;-79
2021/05/05 06:36:06;;;;;;;5.53;3.40;;;;;;;13.24;53.60;97298.47;127664;1104;115936;-79
2021/05/05 06:38:33;;;;;;;12.80;4.53;;;;;;;13.30;52.45;97290.86;127556;1100;115193;-78
2021/05/05 06:40:59;;;;;;;5.03;2.60;;;;;;;13.31;53.96;97300.52;128471;1104;23188;-78
2021/05/05 06:43:25;;;;;;;9.00;3.87;;;;;;;13.36;52.97;97289.45;127691;1104;116271;-80
2021/05/05 06:45:51;;;;;;;5.73;4.00;;;;;;;13.44;52.35;97287.66;127629;1104;115561;-79
2021/05/05 06:48:18;;;;;;;7.13;4.00;;;;;;;13.48;53.46;97292.03;127852;1100;115528;-79
2021/05/05 06:50:46;;;;;;;6.18;3.98;;;;;;;13.54;52.68;97289.81;127554;1099;115738;-78
2021/05/05 06:53:12;;;;;;;11.18;4.30;;;;;;;13.60;52.93;97287.63;128324;1104;22732;-77
2021/05/05 06:55:38;;;;;;;7.78;4.40;;;;;;;13.69;52.05;97280.86;127600;1104;115157;-77
2021/05/05 06:58:04;;;;;;;6.50;4.35;;;;;;;13.74;52.67;97285.97;127665;1100;115380;-78
2021/05/05 07:00:31;;;;;;;6.03;3.65;;;;;;;13.80;53.00;97274.89;127596;1105;115405;-79
2021/05/05 07:02:57;;;;;;;5.65;3.75;;;;;;;13.90;52.35;97287.82;127602;1104;115768;-78
2021/05/05 07:05:23;;;;;;;9.40;4.70;;;;;;;14.00;52.09;97298.08;127608;1104;116188;-78
2021/05/05 07:07:49;;;;;;;8.03;4.35;;;;;;;14.05;51.63;97300.48;128462;1104;22779;-78
2021/05/05 07:10:15;;;;;;;7.03;3.23;;;;;;;14.05;52.01;97292.37;127640;1104;115491;-78
2021/05/05 07:12:41;;;;;;;13.93;4.23;;;;;;;14.11;52.80;97296.36;127616;1104;115983;-79
2021/05/05 07:15:08;;;;;;;9.00;4.00;;;;;;;14.18;51.91;97291.05;127642;1104;115775;-78
2021/05/05 07:17:35;;;;;;;8.68;4.53;;;;;;;14.27;52.77;97296.27;127615;1105;117022;-78
2021/05/05 07:20:01;;;;;;;7.78;4.50;;;;;;;14.36;51.65;97285.97;128371;1104;22742;-78
2021/05/05 07:22:27;;;;;;;7.33;4.23;;;;;;;14.47;51.26;97283.45;127606;1104;114434;-78
2021/05/05 07:24:53;;;;;;;8.58;4.35;;;;;;;14.53;51.20;97282.02;127658;1104;115287;-79
2021/05/05 07:27:19;;;;;;;12.95;4.78;;;;;;;14.61;51.00;97286.41;127586;1104;116048;-79
2021/05/05 07:29:45;;;;;;;11.08;4.40;;;;;;;14.65;50.84;97276.41;127579;1104;116057;-79
2021/05/05 07:32:12;;;;;;;6.25;3.40;;;;;;;14.76;51.37;97275.81;128394;1105;22814;-77
2021/05/05 07:34:40;;;;;;;6.33;3.33;;;;;;;14.79;50.98;97285.94;127615;1106;114117;-78
2021/05/05 07:37:15;;;;;;;8.95;4.33;;;;;;;14.84;50.96;97294.52;127700;1104;115433;-79
2021/05/05 07:45:14;;;;;;;6.75;4.40;;;;;;;15.10;50.53;97287.57;127634;1104;115722;-78
2021/05/05 07:48:01;;;;;;;;;;;;;;;;;;;;;
2021/05/05 07:50:32;;;;;;;8.65;4.73;;;;;;;15.31;50.29;97274.30;127678;1104;116128;-78
2021/05/05 07:53:06;;;;;;;4.83;3.30;;;;;;;15.36;50.90;97265.83;128457;1098;22748;-79
2021/05/05 07:55:32;;;;;;;12.03;4.85;;;;;;;15.51;50.09;97268.73;127662;1104;116165;-79
2021/05/05 07:57:59;;;;;;;8.65;4.25;;;;;;;15.60;49.97;97272.75;127643;1104;115957;-79
2021/05/05 08:00:25;;;;;;;8.28;4.33;;;;;;;15.65;49.60;97271.67;127600;1104;115226;-78
2021/05/05 08:02:52;;;;;;;7.68;3.98;;;;;;;15.73;49.92;97273.31;127590;1104;115934;-79
2021/05/05 08:05:18;;;;;;;7.58;4.88;;;;;;;15.85;49.96;97269.58;128523;1104;22795;-77
2021/05/05 08:07:44;;;;;;;8.95;4.78;;;;;;;15.99;49.12;97282.52;128409;1099;26225;-78
2021/05/05 08:10:11;;;;;;;7.05;4.63;;;;;;;16.11;48.55;97271.39;127662;1104;115165;-79
2021/05/05 08:12:37;;;;;;;6.95;4.43;;;;;;;16.14;48.33;97271.43;127620;1106;115671;-79
2021/05/05 08:15:05;;;;;;;9.88;4.50;;;;;;;16.14;48.34;97273.37;127649;1104;116592;-78
2021/05/05 08:17:31;;;;;;;8.40;4.80;;;;;;;16.19;48.47;97262.97;127615;1104;115744;-79
2021/05/05 08:19:57;;;;;;;7.48;4.08;;;;;;;16.27;48.24;97260.30;128440;1104;22808;-79
2021/05/05 08:22:23;;;;;;;6.10;2.93;;;;;;;16.34;47.77;97244.06;127596;1104;114929;-78
2021/05/05 08:24:50;;;;;;;7.43;4.30;;;;;;;16.46;47.89;97246.50;127651;1104;115723;-78
2021/05/05 08:27:16;;;;;;;7.93;4.88;;;;;;;16.57;47.66;97243.88;127553;1105;115464;-79
2021/05/05 08:29:42;;;;;;;9.13;4.78;;;;;;;16.67;47.38;97245.91;127523;1104;115620;-82
2021/05/05 08:32:08;;;;;;;4.53;3.30;;;;;;;16.76;47.59;97240.95;128382;1104;22789;-80
2021/05/05 08:34:34;;;;;;;7.68;4.05;;;;;;;16.91;46.96;97234.46;127597;1104;116670;-81
2021/05/05 08:37:01;;;;;;;7.57;4.40;;;;;;;17.05;47.18;97235.70;127666;1104;115893;-81
2021/05/05 08:39:27;;;;;;;7.60;4.38;;;;;;;17.20;46.53;97222.97;127542;1104;114865;-79
2021/05/05 08:41:54;;;;;;;9.15;4.45;;;;;;;17.24;45.93;97221.05;127594;1104;116341;-79
2021/05/05 08:44:21;;;;;;;8.67;4.70;;;;;;;17.36;45.78;97231.59;127608;1105;115540;-80
2021/05/05 08:46:48;;;;;;;10.08;4.88;;;;;;;17.47;45.42;97216.09;128403;1104;22818;-80
2021/05/05 08:49:17;;;;;;;11.20;4.58;;;;;;;17.58;45.10;97227.81;127605;1104;115753;-80
2021/05/05 08:51:43;;;;;;;6.83;3.93;;;;;;;17.67;44.77;97222.00;127619;1100;115737;-80
2021/05/05 08:54:10;;;;;;;5.50;3.80;;;;;;;17.85;45.24;97217.42;127519;1104;115767;-79
2021/05/05 08:56:38;;;;;;;6.80;3.88;;;;;;;18.07;45.22;97218.23;127663;1104;115524;-80
2021/05/05 08:59:17;;;;;;;7.88;3.70;;;;;;;18.17;44.64;97215.93;128416;1105;22788;-78
2021/05/05 09:01:44;;;;;;;8.80;4.48;;;;;;;18.28;43.78;97235.80;127600;1104;115466;-79
2021/05/05 09:04:11;;;;;;;9.20;4.28;;;;;;;18.40;43.91;97219.06;127549;1104;115191;-81
2021/05/05 09:06:55;;;;;;;6.63;3.80;;;;;;;18.50;43.60;97225.67;127541;1100;116068;-81
2021/05/05 09:09:42;;;;;;;8.00;4.15;;;;;;;18.51;43.21;97228.03;127609;1104;116024;-79
2021/05/05 09:12:13;;;;;;;6.13;3.93;;;;;;;18.49;43.03;97229.58;127675;1104;114880;-79
2021/05/05 09:15:01;;;;;;;5.93;3.38;;;;;;;18.50;42.36;97210.09;127527;1104;115689;-80
2021/05/05 09:17:31;;;;;;;11.15;4.68;;;;;;;18.67;42.70;97227.64;127696;1104;115714;-81
2021/05/05 09:20:03;;;;;;;7.95;3.78;;;;;;;18.75;42.74;97209.36;128473;1104;22805;-80
2021/05/05 09:22:46;;;;;;;8.10;3.78;;;;;;;18.77;42.08;97212.45;127702;1104;115361;-80
2021/05/05 09:25:16;;;;;;;6.45;3.48;;;;;;;18.66;41.78;97206.97;127674;1099;115238;-80
2021/05/05 09:27:43;;;;;;;9.35;3.75;;;;;;;18.71;41.73;97200.41;127495;1104;116057;-80
2021/05/05 09:30:22;;;;;;;7.28;3.50;;;;;;;18.76;41.04;97202.72;127459;1104;115351;-80
2021/05/05 09:32:55;;;;;;;7.15;3.43;;;;;;;18.91;40.80;97198.80;127626;1098;115594;-80
2021/05/05 09:35:39;;;;;;;6.25;3.30;;;;;;;19.02;41.02;97185.92;127590;1104;115657;-80
2021/05/05 09:38:10;;;;;;;9.23;3.90;;;;;;;19.25;40.71;97192.85;128457;1104;22793;-80
2021/05/05 09:40:38;;;;;;;5.20;3.58;;;;;;;19.31;39.26;97192.06;127642;1104;115324;-80
2021/05/05 09:43:16;;;;;;;8.55;3.25;;;;;;;19.29;40.13;97196.34;127677;1104;115606;-80
2021/05/05 09:45:43;;;;;;;6.20;3.08;;;;;;;19.36;39.84;97177.99;127595;1104;115200;-80
2021/05/05 09:48:10;;;;;;;6.35;3.13;;;;;;;19.43;39.39;97185.38;127614;1104;116592;-80
2021/05/05 09:50:39;;;;;;;6.03;3.40;;;;;;;19.54;39.49;97172.47;127663;1104;115702;-80
2021/05/05 09:53:35;;;;;;;5.85;3.53;;;;;;;19.74;39.60;97172.01;128492;1104;22757;-80
2021/05/05 09:56:09;;;;;;;5.88;3.20;;;;;;;19.93;39.99;97170.73;128403;1104;22752;-80
2021/05/05 09:58:44;;;;;;;7.50;3.43;;;;;;;20.01;39.15;97173.01;127559;1104;115004;-83
2021/05/05 10:01:21;;;;;;;5.73;3.03;;;;;;;19.95;38.08;97155.47;127524;1104;115350;-83
2021/05/05 10:03:55;;;;;;;6.03;3.23;;;;;;;19.91;38.73;97151.98;127519;1104;115915;-82
2021/05/05 10:06:33;;;;;;;5.08;3.30;;;;;;;20.01;38.90;97170.27;127638;1104;115485;-82
2021/05/05 10:09:05;;;;;;;8.18;3.25;;;;;;;20.05;38.42;97151.13;127685;1104;115686;-82
2021/05/05 10:11:52;;;;;;;7.03;3.05;;;;;;;20.10;38.19;97135.06;127683;1104;116146;-82
2021/05/05 10:14:20;;;;;;;8.53;3.25;;;;;;;20.14;38.62;97143.23;128448;1104;22822;-82
2021/05/05 10:16:51;;;;;;;4.75;2.40;;;;;;;20.08;38.04;97134.70;128431;1104;22788;-84
2021/05/05 10:19:25;;;;;;;9.30;3.60;;;;;;;19.90;38.32;97146.94;127704;1104;117087;-82
2021/05/05 10:22:03;;;;;;;6.60;3.18;;;;;;;19.77;38.45;97138.44;127723;1105;115997;-81
2021/05/05 10:24:31;;;;;;;4.68;2.03;;;;;;;19.76;38.57;97131.40;127540;1105;116198;-80
2021/05/05 10:26:58;;;;;;;7.93;3.00;;;;;;;19.90;38.87;97133.27;127630;1104;115746;-79
2021/05/05 10:29:24;;;;;;;7.53;3.20;;;;;;;20.11;38.27;97141.30;127494;1104;115246;-80
2021/05/05 10:31:54;;;;;;;8.58;3.68;;;;;;;20.24;38.00;97147.05;128411;1100;22819;-77
2021/05/05 10:34:22;;;;;;;7.80;3.43;;;;;;;20.33;37.78;97150.89;127496;1099;115226;-81
2021/05/05 10:36:55;;;;;;;8.95;3.43;;;;;;;20.48;37.37;97140.62;127646;1104;115809;-81
2021/05/05 10:39:32;;;;;;;4.95;2.63;;;;;;;20.37;37.30;97155.56;127607;1104;115647;-81
2021/05/05 10:42:01;;;;;;;8.83;3.23;;;;;;;20.45;37.27;97140.64;127589;1104;115617;-82
2021/05/05 10:44:40;;;;;;;3.93;2.70;;;;;;;20.52;36.50;97141.39;127616;1104;115713;-82
2021/05/05 10:47:34;;;;;;;6.18;2.83;;;;;;;20.49;37.16;97139.45;128477;1100;22742;-81
2021/05/05 10:50:01;;;;;;;2.65;2.10;;;;;;;20.68;36.88;97134.60;128487;1104;22763;-82
2021/05/05 10:52:29;;;;;;;8.58;3.00;;;;;;;20.82;36.65;97126.23;127727;1104;115009;-82
2021/05/05 10:54:57;;;;;;;5.93;3.13;;;;;;;20.96;36.23;97128.05;127646;1099;115222;-82
2021/05/05 10:57:26;;;;;;;5.80;3.25;;;;;;;21.11;35.82;97139.61;127655;1104;116047;-82
2021/05/05 11:00:07;;;;;;;4.53;2.75;;;;;;;21.16;35.55;97125.47;127650;1104;116194;-82
2021/05/05 11:02:39;;;;;;;5.93;3.07;;;;;;;20.98;35.44;97142.86;127648;1105;115170;-82
2021/05/05 11:05:11;;;;;;;5.60;2.73;;;;;;;20.96;35.35;97133.52;128393;1104;22785;-82
2021/05/05 11:07:51;;;;;;;6.20;3.38;;;;;;;21.04;35.83;97124.81;127672;1104;114886;-81
2021/05/05 11:10:34;;;;;;;7.08;2.75;;;;;;;21.17;36.00;97127.02;127651;1104;116010;-82
2021/05/05 11:13:17;;;;;;;5.53;3.30;;;;;;;21.35;35.80;97111.17;127686;1100;115434;-82
2021/05/05 11:15:44;;;;;;;4.87;3.00;;;;;;;21.50;35.51;97111.77;127701;1104;115350;-82
2021/05/05 11:18:26;;;;;;;6.43;3.18;;;;;;;21.63;35.17;97118.22;127686;1104;115443;-82
2021/05/05 11:21:06;;;;;;;7.57;3.37;;;;;;;21.76;34.95;97135.64;127652;1104;115483;-82
2021/05/05 11:24:03;;;;;;;;;;;;;;;;;;;;;
2021/05/05 11:26:31;;;;;;;6.20;3.08;;;;;;;22.01;33.49;97109.84;127593;1104;115113;-81
2021/05/05 11:29:11;;;;;;;6.95;3.08;;;;;;;22.07;33.52;97108.16;128470;1104;22799;-83
2021/05/05 11:31:47;;;;;;;4.05;2.40;;;;;;;22.10;32.77;97098.34;127620;1098;115128;-82
2021/05/05 11:34:23;;;;;;;6.70;3.33;;;;;;;22.26;33.06;97104.75;127670;1104;115647;-82